Time;durP1;ratioP1;P1;durP2;ratioP2;P2;SDS_P1;SDS_P2;PMS_P1;PMS_P2;Temp;Humidity;BMP_temperature;BMP_pressure;BME280_temperature;BME280_humidity;BME280_pressure;Samples;Min_cycle;Max_cycle;Signal;HPM_P1;HPM_P2
2023/12/21 00:01:56;;;;;;;7.67;6.70;;;6.00;1.00;;;;;;5054743;28;20194;-66
2023/12/21 00:04:22;;;;;;;7.73;6.70;;;6.00;1.00;;;;;;5055626;28;20628;-65
2023/12/21 00:06:48;;;;;;;14.53;7.27;;;6.10;1.00;;;;;;5053006;28;20171;-67
2023/12/21 00:09:13;;;;;;;7.43;6.73;;;6.10;1.00;;;;;;5054513;28;20181;-68
2023/12/21 00:11:39;;;;;;;6.60;6.00;;;6.10;1.00;;;;;;5054759;28;20232;-75
2023/12/21 00:14:05;;;;;;;7.73;6.93;;;6.10;1.00;;;;;;5051326;28;20190;-64
2023/12/21 00:16:30;;;;;;;8.07;7.27;;;6.10;1.00;;;;;;5053921;28;20175;-65
2023/12/21 00:18:56;;;;;;;8.20;6.40;;;6.20;1.00;;;;;;5053491;28;20195;-66
2023/12/21 00:21:22;;;;;;;8.70;5.97;;;6.10;1.00;;;;;;5054836;28;20226;-65
2023/12/21 00:23:48;;;;;;;9.83;6.87;;;6.10;1.00;;;;;;5055312;28;20433;-65
2023/12/21 00:26:13;;;;;;;7.90;6.40;;;6.10;1.00;;;;;;5054051;28;20187;-66
2023/12/21 00:28:39;;;;;;;15.73;8.33;;;6.10;1.00;;;;;;5052605;28;20195;-66
2023/12/21 00:31:05;;;;;;;7.60;6.80;;;6.10;1.00;;;;;;5052970;28;20179;-67
2023/12/21 00:33:30;;;;;;;7.70;6.00;;;6.10;1.00;;;;;;5054829;28;20182;-66
2023/12/21 00:35:56;;;;;;;7.70;7.00;;;6.10;1.00;;;;;;5053094;28;20189;-66
2023/12/21 00:38:21;;;;;;;9.30;7.23;;;6.10;1.00;;;;;;5054351;28;20235;-65
2023/12/21 00:40:47;;;;;;;8.00;6.93;;;6.20;1.00;;;;;;5054643;28;20199;-65
2023/12/21 00:43:13;;;;;;;10.40;6.60;;;6.30;1.00;;;;;;5054730;28;20246;-68
2023/12/21 00:45:38;;;;;;;7.73;6.33;;;6.20;1.00;;;;;;5053355;28;20171;-67
2023/12/21 00:48:04;;;;;;;10.00;6.70;;;6.30;1.00;;;;;;5054609;28;20198;-65
2023/12/21 00:50:30;;;;;;;9.73;6.60;;;6.20;1.00;;;;;;5053002;28;20171;-68
2023/12/21 00:52:56;;;;;;;9.63;6.80;;;6.20;1.00;;;;;;5053813;28;20771;-66
2023/12/21 00:55:21;;;;;;;6.20;5.37;;;6.20;1.00;;;;;;5052857;28;20175;-64
2023/12/21 00:57:47;;;;;;;10.10;6.70;;;6.30;1.00;;;;;;5055080;28;20728;-68
2023/12/21 01:00:13;;;;;;;10.97;7.17;;;6.30;1.00;;;;;;5051737;28;20189;-66
2023/12/21 01:02:39;;;;;;;8.83;6.40;;;6.30;1.00;;;;;;5054104;28;20203;-67
2023/12/21 01:05:05;;;;;;;6.43;5.63;;;6.30;1.00;;;;;;5053625;28;20426;-66
2023/12/21 01:07:31;;;;;;;6.50;6.00;;;6.30;1.00;;;;;;5053721;28;20245;-69
2023/12/21 01:09:57;;;;;;;6.57;5.97;;;6.30;1.00;;;;;;5053667;28;20897;-65
2023/12/21 01:12:22;;;;;;;6.57;5.70;;;6.30;1.00;;;;;;5052975;28;20173;-65
2023/12/21 01:14:48;;;;;;;6.57;5.57;;;6.30;1.00;;;;;;5052687;28;20417;-66
2023/12/21 01:17:14;;;;;;;7.27;6.53;;;6.20;1.00;;;;;;5052967;28;20195;-69
2023/12/21 01:19:39;;;;;;;8.43;6.50;;;6.20;1.00;;;;;;5050143;28;20187;-67
2023/12/21 01:22:05;;;;;;;7.30;5.87;;;6.20;1.00;;;;;;5052765;28;20242;-67
2023/12/21 01:24:30;;;;;;;7.83;6.80;;;6.30;1.00;;;;;;5053447;28;20171;-75
2023/12/21 01:26:56;;;;;;;6.70;6.03;;;6.30;1.00;;;;;;5053079;28;20257;-65
2023/12/21 01:29:22;;;;;;;8.60;7.33;;;6.20;1.00;;;;;;5053222;28;20708;-65
2023/12/21 01:31:48;;;;;;;6.30;5.70;;;6.20;1.00;;;;;;5051318;28;20201;-66
2023/12/21 01:34:13;;;;;;;7.17;5.60;;;6.20;1.00;;;;;;5053995;28;20624;-66
2023/12/21 01:36:39;;;;;;;6.53;5.63;;;6.20;1.00;;;;;;5052474;28;20159;-66
2023/12/21 01:39:06;;;;;;;9.17;6.60;;;6.20;1.00;;;;;;5053603;28;20195;-66
2023/12/21 01:41:32;;;;;;;6.77;5.77;;;6.20;1.00;;;;;;5053507;28;20285;-65
2023/12/21 01:43:58;;;;;;;9.13;6.33;;;6.30;1.00;;;;;;5051298;28;20424;-66
2023/12/21 01:46:24;;;;;;;10.77;8.23;;;6.30;1.00;;;;;;5051265;28;20437;-65
2023/12/21 01:48:51;;;;;;;9.17;7.80;;;6.30;1.00;;;;;;5051953;28;20277;-65
2023/12/21 01:51:19;;;;;;;7.50;6.40;;;6.30;1.00;;;;;;5053582;28;20925;-64
2023/12/21 01:53:45;;;;;;;14.07;6.00;;;6.20;1.00;;;;;;5053165;28;20917;-64
2023/12/21 01:56:11;;;;;;;8.20;6.50;;;6.20;1.00;;;;;;5052222;28;20405;-69
2023/12/21 01:58:37;;;;;;;7.67;6.90;;;6.20;1.00;;;;;;5052698;28;20410;-69
2023/12/21 02:01:05;;;;;;;8.23;7.40;;;6.20;1.00;;;;;;5040818;28;20484;-66
2023/12/21 02:03:31;;;;;;;8.23;6.37;;;6.20;1.00;;;;;;5053610;28;20418;-65
2023/12/21 02:05:57;;;;;;;7.20;6.50;;;6.20;1.00;;;;;;5072218;28;20483;-68
2023/12/21 02:08:23;;;;;;;7.63;5.70;;;6.20;1.00;;;;;;5057927;28;20441;-65
2023/12/21 02:10:48;;;;;;;9.27;6.70;;;6.20;1.00;;;;;;5051334;28;20171;-65
2023/12/21 02:13:15;;;;;;;7.90;7.10;;;6.20;1.00;;;;;;5052813;28;20766;-69
2023/12/21 02:15:41;;;;;;;10.63;6.80;;;6.20;1.00;;;;;;5051607;28;20256;-66
2023/12/21 02:18:09;;;;;;;7.57;5.80;;;6.20;1.00;;;;;;5051448;28;20548;-66
2023/12/21 02:20:35;;;;;;;7.77;5.20;;;6.30;1.00;;;;;;5051224;28;20240;-68
2023/12/21 02:23:03;;;;;;;6.63;5.93;;;6.30;1.00;;;;;;5053078;28;20522;-65
2023/12/21 02:25:30;;;;;;;8.60;6.50;;;6.30;1.00;;;;;;5051536;28;20790;-66
2023/12/21 02:27:56;;;;;;;13.30;5.77;;;6.30;1.00;;;;;;5052805;28;20418;-70
2023/12/21 02:30:22;;;;;;;6.70;6.10;;;6.30;1.00;;;;;;5062499;28;20436;-66
2023/12/21 02:32:48;;;;;;;5.70;5.10;;;6.30;1.00;;;;;;5052850;28;20174;-69
2023/12/21 02:35:15;;;;;;;6.07;5.50;;;6.30;1.00;;;;;;5050950;28;20171;-66
2023/12/21 02:37:40;;;;;;;7.20;5.70;;;6.30;1.00;;;;;;5050831;28;20195;-68
2023/12/21 02:40:07;;;;;;;5.50;5.00;;;6.30;1.00;;;;;;5052241;28;20409;-66
2023/12/21 02:42:32;;;;;;;6.40;5.80;;;6.40;1.00;;;;;;5052780;28;20254;-68
2023/12/21 02:44:58;;;;;;;5.00;4.60;;;6.40;1.00;;;;;;5053514;28;20520;-67
2023/12/21 02:47:23;;;;;;;5.80;4.90;;;6.40;1.00;;;;;;5052132;28;20199;-65
2023/12/21 02:49:49;;;;;;;4.83;4.33;;;6.50;1.00;;;;;;5028237;28;20179;-65
2023/12/21 02:52:15;;;;;;;4.77;3.90;;;6.50;1.00;;;;;;5039971;28;20181;-67
2023/12/21 02:54:40;;;;;;;6.23;4.63;;;6.50;1.00;;;;;;5050616;28;20415;-70
2023/12/21 02:57:06;;;;;;;4.77;4.33;;;6.50;1.00;;;;;;5052051;28;20203;-65
2023/12/21 02:59:32;;;;;;;5.60;5.00;;;6.60;1.00;;;;;;5051944;28;20266;-65
2023/12/21 03:01:57;;;;;;;6.00;5.47;;;6.60;1.00;;;;;;5052227;28;20202;-65
2023/12/21 03:04:23;;;;;;;6.90;6.00;;;6.70;1.00;;;;;;5052720;28;20678;-73
2023/12/21 03:06:49;;;;;;;5.50;4.97;;;6.70;1.00;;;;;;5050658;28;21559;-65
2023/12/21 03:09:14;;;;;;;6.30;5.43;;;6.70;1.00;;;;;;5051243;28;20171;-67
2023/12/21 03:11:40;;;;;;;6.47;4.80;;;6.80;1.00;;;;;;5052213;28;20534;-66
2023/12/21 03:14:06;;;;;;;5.83;4.83;;;6.80;1.00;;;;;;5051669;28;20189;-64
2023/12/21 03:16:33;;;;;;;6.20;5.00;;;6.80;1.00;;;;;;5050241;28;20171;-67
2023/12/21 03:18:59;;;;;;;6.07;5.60;;;6.90;1.00;;;;;;5052541;28;20204;-65
2023/12/21 03:21:25;;;;;;;5.37;4.87;;;6.80;1.00;;;;;;5049810;28;20511;-70
2023/12/21 03:23:51;;;;;;;6.43;5.83;;;6.80;1.00;;;;;;5070519;28;20492;-68
2023/12/21 03:26:17;;;;;;;6.33;5.13;;;6.90;1.00;;;;;;5045614;28;20211;-65
2023/12/21 03:28:44;;;;;;;6.73;5.07;;;6.90;1.00;;;;;;5036277;28;20192;-65
2023/12/21 03:31:10;;;;;;;10.70;5.30;;;6.90;1.00;;;;;;5055887;28;20446;-64
2023/12/21 03:33:36;;;;;;;7.03;4.37;;;7.00;1.00;;;;;;5033631;28;20430;-64
2023/12/21 03:36:02;;;;;;;7.13;4.70;;;7.00;1.00;;;;;;5035280;28;20460;-68
2023/12/21 03:38:27;;;;;;;5.20;4.70;;;7.10;1.00;;;;;;5055822;28;20206;-65
2023/12/21 03:40:53;;;;;;;5.60;4.80;;;7.10;1.00;;;;;;5054323;28;20282;-66
2023/12/21 03:43:20;;;;;;;4.40;3.97;;;7.20;1.00;;;;;;5055785;28;20198;-65
2023/12/21 03:45:45;;;;;;;5.07;4.53;;;7.30;1.00;;;;;;5054479;28;20174;-64
2023/12/21 03:48:11;;;;;;;8.73;4.70;;;7.30;1.00;;;;;;5054619;28;20479;-65
2023/12/21 03:50:37;;;;;;;5.37;4.70;;;7.30;1.00;;;;;;5055031;28;20186;-67
2023/12/21 03:53:03;;;;;;;12.90;4.50;;;7.40;1.00;;;;;;5055173;28;20183;-64
2023/12/21 03:55:29;;;;;;;11.10;4.30;;;7.40;1.00;;;;;;5053824;28;20183;-64
2023/12/21 03:57:56;;;;;;;6.27;3.40;;;7.50;1.00;;;;;;5054972;28;20430;-71
2023/12/21 04:00:22;;;;;;;10.13;3.83;;;7.50;1.00;;;;;;5046218;28;20395;-65
2023/12/21 04:02:48;;;;;;;11.00;3.20;;;7.50;1.00;;;;;;5055110;28;20759;-65
2023/12/21 04:05:14;;;;;;;4.03;2.70;;;7.60;1.00;;;;;;5054497;28;20414;-65
2023/12/21 04:07:40;;;;;;;7.50;3.40;;;7.60;1.00;;;;;;5055071;28;20518;-64
2023/12/21 04:10:06;;;;;;;9.10;3.83;;;7.70;1.00;;;;;;5054763;28;20413;-64
2023/12/21 04:12:32;;;;;;;2.97;2.53;;;7.70;1.00;;;;;;5055324;28;20202;-69
2023/12/21 04:14:57;;;;;;;3.17;2.97;;;7.80;1.00;;;;;;5053218;28;20478;-67
2023/12/21 04:17:23;;;;;;;6.07;3.77;;;7.80;1.00;;;;;;5053713;28;20254;-71
2023/12/21 04:19:49;;;;;;;9.30;2.77;;;7.90;1.00;;;;;;5054459;28;20177;-65
2023/12/21 04:22:14;;;;;;;8.50;2.50;;;7.90;1.00;;;;;;5053604;28;20731;-65
2023/12/21 04:24:41;;;;;;;5.20;2.70;;;7.90;1.00;;;;;;5051826;28;20182;-66
2023/12/21 04:27:07;;;;;;;7.33;3.50;;;8.00;1.00;;;;;;5053839;28;20645;-65
2023/12/21 04:29:32;;;;;;;5.20;2.97;;;8.00;1.00;;;;;;5054150;28;20376;-66
2023/12/21 04:31:58;;;;;;;12.77;3.87;;;8.00;1.00;;;;;;5054847;28;20711;-65
2023/12/21 04:34:24;;;;;;;10.00;4.33;;;8.00;1.00;;;;;;5054638;28;20179;-66
2023/12/21 04:36:49;;;;;;;19.37;4.40;;;8.00;1.00;;;;;;5052423;28;20211;-65
2023/12/21 04:39:15;;;;;;;9.40;4.93;;;8.00;1.00;;;;;;5054599;28;20232;-66
2023/12/21 04:41:41;;;;;;;15.80;4.47;;;8.00;1.00;;;;;;5053149;28;20233;-66
2023/12/21 04:44:07;;;;;;;9.87;4.63;;;8.10;1.00;;;;;;5054643;28;20630;-66
2023/12/21 04:46:33;;;;;;;10.03;3.87;;;8.10;1.00;;;;;;5051219;28;20437;-68
2023/12/21 04:48:58;;;;;;;14.87;4.00;;;8.00;1.00;;;;;;5054214;28;20225;-68
2023/12/21 04:51:24;;;;;;;12.50;3.53;;;8.10;1.00;;;;;;5053731;28;20187;-65
2023/12/21 04:53:50;;;;;;;6.27;3.77;;;8.10;1.00;;;;;;5054524;28;20181;-67
2023/12/21 04:56:16;;;;;;;6.70;3.47;;;8.20;1.00;;;;;;5053694;28;20183;-67
2023/12/21 04:58:42;;;;;;;10.00;3.40;;;8.20;1.00;;;;;;5053253;28;20196;-65
2023/12/21 05:01:08;;;;;;;8.33;3.70;;;8.20;1.00;;;;;;5053996;28;20195;-65
2023/12/21 05:03:34;;;;;;;11.20;4.10;;;8.20;1.00;;;;;;5053303;28;20428;-66
2023/12/21 05:06:03;;;;;;;3.33;3.03;;;8.20;1.00;;;;;;5019172;28;20446;-65
2023/12/21 05:08:29;;;;;;;3.43;2.70;;;8.20;1.00;;;;;;5053179;28;20480;-66
2023/12/21 05:10:55;;;;;;;7.03;3.67;;;8.20;1.00;;;;;;5053627;28;20421;-65
2023/12/21 05:13:21;;;;;;;5.47;3.40;;;8.20;1.00;;;;;;5054028;28;20393;-67
2023/12/21 05:15:46;;;;;;;6.63;3.57;;;8.20;1.00;;;;;;5052530;28;20805;-65
2023/12/21 05:18:12;;;;;;;4.90;4.13;;;8.20;1.00;;;;;;5054160;28;20729;-65
2023/12/21 05:20:38;;;;;;;10.13;4.07;;;8.30;1.00;;;;;;5035749;28;20205;-65
2023/12/21 05:23:04;;;;;;;20.17;3.90;;;8.20;1.00;;;;;;5053324;28;20175;-64
2023/12/21 05:25:30;;;;;;;8.60;3.70;;;8.30;1.00;;;;;;5069615;28;20441;-66
2023/12/21 05:27:55;;;;;;;9.27;3.63;;;8.30;1.00;;;;;;5070988;28;20620;-65
2023/12/21 05:30:22;;;;;;;8.80;3.80;;;8.30;1.00;;;;;;5052845;28;20167;-66
2023/12/21 05:32:48;;;;;;;4.80;3.60;;;8.30;1.00;;;;;;5063510;28;20182;-65
2023/12/21 05:35:14;;;;;;;6.57;3.80;;;8.30;1.00;;;;;;5031833;28;20388;-67
2023/12/21 05:37:40;;;;;;;5.87;4.47;;;8.30;1.00;;;;;;5034024;28;20522;-65
2023/12/21 05:40:07;;;;;;;14.47;4.10;;;8.40;1.00;;;;;;5051946;28;20176;-65
2023/12/21 05:42:32;;;;;;;9.20;3.30;;;8.30;1.00;;;;;;5053635;28;20435;-66
2023/12/21 05:44:58;;;;;;;8.50;4.40;;;8.40;1.00;;;;;;5051057;28;20383;-65
2023/12/21 05:47:24;;;;;;;11.97;4.07;;;8.40;1.00;;;;;;5069743;28;20554;-66
2023/12/21 05:49:50;;;;;;;20.97;4.30;;;8.40;1.00;;;;;;5070142;28;20171;-65
2023/12/21 05:52:16;;;;;;;10.10;4.20;;;8.40;1.00;;;;;;5053786;28;20750;-65
2023/12/21 05:54:42;;;;;;;21.67;4.80;;;8.40;1.00;;;;;;5052696;28;20571;-65
2023/12/21 05:57:11;;;;;;;15.23;5.30;;;8.40;1.00;;;;;;5052357;28;20512;-65
2023/12/21 05:59:38;;;;;;;14.30;4.70;;;8.40;1.00;;;;;;5053457;28;20194;-70
2023/12/21 06:02:04;;;;;;;11.83;3.97;;;8.40;1.00;;;;;;5039968;28;20517;-65
2023/12/21 06:04:30;;;;;;;6.83;3.63;;;8.40;1.00;;;;;;5049275;28;20517;-78
2023/12/21 06:06:56;;;;;;;9.57;4.03;;;8.40;1.00;;;;;;5054683;28;20516;-65
2023/12/21 06:09:22;;;;;;;11.70;4.37;;;8.40;1.00;;;;;;5055457;28;20421;-64
2023/12/21 06:11:47;;;;;;;14.57;4.10;;;8.40;1.00;;;;;;5053447;28;20375;-67
2023/12/21 06:14:13;;;;;;;6.80;3.40;;;8.40;1.00;;;;;;5052013;28;20173;-66
2023/12/21 06:16:39;;;;;;;8.40;4.10;;;8.40;1.00;;;;;;5050249;28;20176;-67
2023/12/21 06:19:09;;;;;;;4.17;3.77;;;8.40;1.00;;;;;;5053171;28;20679;-65
2023/12/21 06:21:38;;;;;;;9.40;3.93;;;8.40;1.00;;;;;;5052066;28;20204;-64
2023/12/21 06:24:06;;;;;;;13.50;4.43;;;8.40;1.00;;;;;;5052644;28;20377;-66
2023/12/21 06:26:32;;;;;;;12.50;3.93;;;8.40;1.00;;;;;;5051152;28;20815;-66
2023/12/21 06:28:58;;;;;;;11.20;4.40;;;8.40;1.00;;;;;;5035578;28;20434;-64
2023/12/21 06:31:24;;;;;;;10.03;3.70;;;8.40;1.00;;;;;;5058998;28;20490;-65
2023/12/21 06:33:52;;;;;;;7.00;3.40;;;8.50;1.00;;;;;;5058045;28;20176;-66
2023/12/21 06:36:17;;;;;;;6.10;3.13;;;8.50;1.00;;;;;;5050741;28;20424;-65
2023/12/21 06:38:43;;;;;;;4.77;3.60;;;8.50;1.00;;;;;;5053008;28;20524;-65
2023/12/21 06:41:12;;;;;;;3.77;2.53;;;8.50;1.00;;;;;;5052359;28;20207;-65
2023/12/21 06:43:38;;;;;;;5.20;2.87;;;8.50;1.00;;;;;;5050971;28;20196;-65
2023/12/21 06:46:10;;;;;;;11.03;4.47;;;8.50;1.00;;;;;;5061936;28;20405;-66
2023/12/21 06:48:36;;;;;;;3.07;2.57;;;8.50;1.00;;;;;;5052450;28;20198;-66
2023/12/21 06:51:02;;;;;;;3.00;2.67;;;8.50;1.00;;;;;;5060729;28;20409;-65
2023/12/21 06:53:27;;;;;;;2.90;2.70;;;8.50;1.00;;;;;;5068899;28;20258;-67
2023/12/21 06:55:54;;;;;;;3.07;2.87;;;8.50;1.00;;;;;;5050709;28;20261;-67
2023/12/21 06:58:19;;;;;;;2.77;2.43;;;8.50;1.00;;;;;;5060418;28;20198;-65
2023/12/21 07:00:45;;;;;;;2.07;1.90;;;8.50;1.00;;;;;;5045671;28;20448;-76
2023/12/21 07:03:11;;;;;;;2.80;2.00;;;8.50;1.00;;;;;;5057648;28;20614;-67
2023/12/21 07:05:37;;;;;;;2.60;2.00;;;8.50;1.00;;;;;;5051966;28;20208;-66
2023/12/21 07:08:04;;;;;;;3.77;1.83;;;8.50;1.00;;;;;;5056550;28;20252;-69
2023/12/21 07:10:29;;;;;;;2.83;1.90;;;8.50;1.00;;;;;;5055289;28;20528;-65
2023/12/21 07:12:56;;;;;;;2.53;1.80;;;8.50;1.00;;;;;;5054048;28;20481;-66
2023/12/21 07:15:21;;;;;;;1.60;1.50;;;8.50;1.00;;;;;;5060478;28;20180;-67
2023/12/21 07:17:48;;;;;;;1.80;1.70;;;8.50;1.00;;;;;;5055009;28;20410;-65
2023/12/21 07:20:15;;;;;;;2.07;1.97;;;8.50;1.00;;;;;;5054360;28;20629;-64
2023/12/21 07:22:41;;;;;;;1.80;1.70;;;8.50;1.00;;;;;;5054364;28;20494;-67
2023/12/21 07:25:07;;;;;;;1.60;1.50;;;8.50;1.00;;;;;;5049861;28;20483;-66
2023/12/21 07:27:33;;;;;;;1.53;1.43;;;8.50;1.00;;;;;;5051783;28;20747;-66
2023/12/21 07:29:59;;;;;;;1.97;1.87;;;8.50;1.00;;;;;;5054187;28;20488;-67
2023/12/21 07:32:26;;;;;;;1.93;1.83;;;8.60;1.00;;;;;;5056541;28;20202;-65
2023/12/21 07:34:52;;;;;;;2.80;1.80;;;8.60;1.00;;;;;;5054006;28;20401;-65
2023/12/21 07:37:18;;;;;;;2.03;1.70;;;8.50;1.00;;;;;;5054609;28;20210;-66
2023/12/21 07:39:44;;;;;;;2.60;1.40;;;8.60;1.00;;;;;;5054081;28;20434;-70
2023/12/21 07:42:10;;;;;;;1.40;1.30;;;8.50;1.00;;;;;;5061281;28;20206;-65
2023/12/21 07:44:37;;;;;;;2.10;1.67;;;8.50;1.00;;;;;;5071155;28;20494;-65
2023/12/21 07:47:02;;;;;;;1.80;1.70;;;8.60;1.00;;;;;;5058048;28;20205;-65
2023/12/21 07:49:28;;;;;;;1.50;1.40;;;8.60;1.00;;;;;;5055492;28;20898;-66
2023/12/21 07:51:54;;;;;;;1.93;1.50;;;8.60;1.00;;;;;;5034425;28;20199;-68
2023/12/21 07:54:20;;;;;;;3.47;2.00;;;8.60;1.00;;;;;;5052613;28;20628;-66
2023/12/21 07:56:46;;;;;;;1.27;1.17;;;8.60;1.00;;;;;;5070632;28;20581;-64
2023/12/21 07:59:11;;;;;;;1.20;1.10;;;8.60;1.00;;;;;;5062256;28;20209;-65
2023/12/21 08:01:37;;;;;;;1.00;0.90;;;8.60;1.00;;;;;;5066133;28;20540;-65
2023/12/21 08:04:03;;;;;;;1.77;1.67;;;8.60;1.00;;;;;;5075298;28;20227;-64
2023/12/21 08:06:28;;;;;;;2.20;1.73;;;8.60;1.00;;;;;;5073294;28;20172;-65
2023/12/21 08:08:54;;;;;;;1.47;1.37;;;8.60;1.00;;;;;;5072470;28;20194;-64
2023/12/21 08:11:21;;;;;;;1.60;1.50;;;8.60;1.00;;;;;;5059054;28;20265;-65
2023/12/21 08:13:48;;;;;;;1.50;1.40;;;8.60;1.00;;;;;;5056877;28;20193;-64
2023/12/21 08:16:14;;;;;;;1.53;1.43;;;8.50;1.00;;;;;;5057467;28;20434;-65
2023/12/21 08:18:40;;;;;;;2.80;1.50;;;8.60;1.00;;;;;;5054840;28;20968;-65
2023/12/21 08:21:05;;;;;;;1.70;1.30;;;8.50;1.00;;;;;;5051522;28;20566;-72
2023/12/21 08:23:31;;;;;;;1.60;1.50;;;8.50;1.00;;;;;;5042264;28;20400;-64
2023/12/21 08:25:57;;;;;;;2.50;1.80;;;8.50;1.00;;;;;;5041782;28;20242;-65
2023/12/21 08:28:23;;;;;;;2.37;2.10;;;8.50;1.00;;;;;;5040876;28;20230;-65
2023/12/21 08:30:49;;;;;;;2.60;1.83;;;8.50;1.00;;;;;;5044097;28;20203;-64
2023/12/21 08:33:14;;;;;;;2.30;1.87;;;8.50;1.00;;;;;;5053671;28;20443;-65
2023/12/21 08:35:40;;;;;;;5.33;1.60;;;8.50;1.00;;;;;;5052980;28;20540;-63
2023/12/21 08:38:06;;;;;;;1.63;1.53;;;8.50;1.00;;;;;;5057439;28;20198;-80
2023/12/21 08:40:31;;;;;;;2.93;1.80;;;8.50;1.00;;;;;;5066092;28;20187;-66
2023/12/21 08:42:57;;;;;;;2.10;1.70;;;8.50;1.00;;;;;;5074486;28;20163;-64
2023/12/21 08:45:23;;;;;;;1.70;1.60;;;8.50;1.00;;;;;;5052977;28;20178;-64
2023/12/21 08:47:49;;;;;;;2.17;1.97;;;8.50;1.00;;;;;;5070526;28;20277;-70
2023/12/21 08:50:15;;;;;;;2.60;2.13;;;8.50;1.00;;;;;;5072502;28;20202;-68
2023/12/21 08:52:42;;;;;;;3.10;1.90;;;8.50;1.00;;;;;;5065243;28;20207;-64
2023/12/21 08:55:08;;;;;;;4.27;1.87;;;8.50;1.00;;;;;;5071225;28;20422;-64
2023/12/21 08:57:36;;;;;;;3.30;2.30;;;8.50;1.00;;;;;;5072166;28;20455;-64
2023/12/21 09:00:08;;;;;;;3.20;2.30;;;8.50;1.00;;;;;;5072148;28;20441;-64
2023/12/21 09:02:35;;;;;;;6.10;2.33;;;8.60;1.00;;;;;;5074188;28;20457;-66
2023/12/21 09:05:02;;;;;;;7.17;3.17;;;8.60;1.00;;;;;;5072936;28;20371;-70
2023/12/21 09:07:28;;;;;;;11.20;3.20;;;8.60;1.00;;;;;;5072563;28;20500;-67
2023/12/21 09:09:54;;;;;;;8.13;3.10;;;8.60;1.00;;;;;;5056111;28;20903;-67
2023/12/21 09:12:19;;;;;;;9.83;2.40;;;8.70;1.00;;;;;;5058113;28;20467;-67
2023/12/21 09:14:45;;;;;;;4.87;3.17;;;8.70;1.00;;;;;;5049285;28;20230;-64
2023/12/21 09:17:13;;;;;;;14.00;2.83;;;8.70;1.00;;;;;;5041501;28;20207;-71
2023/12/21 09:19:39;;;;;;;11.33;3.30;;;8.70;1.00;;;;;;5041271;28;20433;-65
2023/12/21 09:22:04;;;;;;;6.20;2.43;;;8.70;1.00;;;;;;5058335;28;20466;-65
2023/12/21 09:24:30;;;;;;;8.90;2.27;;;8.70;1.00;;;;;;5036889;28;20176;-78
2023/12/21 09:26:55;;;;;;;7.20;2.37;;;8.70;1.00;;;;;;5038111;28;20211;-64
2023/12/21 09:29:21;;;;;;;3.33;2.13;;;8.70;1.00;;;;;;5052260;28;20681;-64
2023/12/21 09:31:47;;;;;;;3.80;1.77;;;8.70;1.00;;;;;;5040149;28;20206;-64
2023/12/21 09:34:12;;;;;;;8.17;2.27;;;8.70;1.00;;;;;;5048295;28;20525;-64
2023/12/21 09:36:40;;;;;;;3.77;2.30;;;8.80;1.00;;;;;;5061694;28;20176;-68
2023/12/21 09:39:06;;;;;;;2.90;1.83;;;8.80;1.00;;;;;;5061717;28;20198;-64
2023/12/21 09:41:33;;;;;;;2.13;1.77;;;8.90;1.00;;;;;;5065868;28;20863;-70
2023/12/21 09:44:01;;;;;;;5.20;2.40;;;8.90;1.00;;;;;;5050849;28;20480;-65
2023/12/21 09:46:37;;;;;;;5.77;3.20;;;8.90;1.00;;;;;;5049443;28;20480;-64
2023/12/21 09:49:04;;;;;;;3.27;1.80;;;8.90;1.00;;;;;;5033881;28;20526;-64
2023/12/21 09:51:36;;;;;;;1.60;1.50;;;8.90;1.00;;;;;;5032177;28;20465;-64
2023/12/21 09:54:04;;;;;;;7.23;2.27;;;8.90;1.00;;;;;;5033785;28;20400;-64
2023/12/21 09:56:31;;;;;;;6.77;1.90;;;8.90;1.00;;;;;;5031773;28;20805;-64
2023/12/21 09:58:58;;;;;;;3.43;2.43;;;9.00;1.00;;;;;;5031868;28;20418;-66
2023/12/21 10:01:24;;;;;;;5.60;2.27;;;9.00;1.00;;;;;;5031950;28;20460;-69
2023/12/21 10:03:50;;;;;;;3.63;1.90;;;9.10;1.00;;;;;;5039686;28;20418;-64
2023/12/21 10:06:17;;;;;;;11.10;2.20;;;9.10;1.00;;;;;;5035243;28;20419;-64
2023/12/21 10:08:43;;;;;;;3.40;2.20;;;9.00;1.00;;;;;;5052112;28;20510;-64
2023/12/21 10:11:09;;;;;;;5.37;2.93;;;9.10;1.00;;;;;;5053347;28;20806;-64
2023/12/21 10:13:37;;;;;;;4.13;1.60;;;9.10;1.00;;;;;;5052877;28;20417;-64
2023/12/21 10:16:03;;;;;;;7.07;3.00;;;9.10;1.00;;;;;;5052318;28;20391;-65
2023/12/21 10:18:31;;;;;;;13.77;3.67;;;9.10;1.00;;;;;;5051753;28;20445;-64
2023/12/21 10:20:57;;;;;;;5.73;2.80;;;9.10;1.00;;;;;;5052476;28;20920;-65
2023/12/21 10:23:25;;;;;;;6.30;2.40;;;9.20;1.00;;;;;;5053251;28;20411;-64
2023/12/21 10:25:53;;;;;;;11.23;3.60;;;9.20;1.00;;;;;;5051049;28;20514;-66
2023/12/21 10:28:23;;;;;;;6.60;3.17;;;9.10;1.00;;;;;;5053093;28;20426;-64
2023/12/21 10:30:54;;;;;;;6.00;3.10;;;9.10;1.00;;;;;;5034805;28;20425;-64
2023/12/21 10:33:20;;;;;;;9.27;3.33;;;9.20;1.00;;;;;;5052686;28;20401;-64
2023/12/21 10:35:46;;;;;;;10.60;3.03;;;9.20;1.00;;;;;;5034473;28;20419;-64
2023/12/21 10:38:12;;;;;;;13.43;5.10;;;9.20;1.00;;;;;;5052656;28;20190;-63
2023/12/21 10:40:38;;;;;;;7.13;2.80;;;9.20;1.00;;;;;;5052317;28;20407;-64
2023/12/21 10:43:04;;;;;;;12.70;4.20;;;9.30;1.00;;;;;;5052981;28;20379;-64
2023/12/21 10:45:32;;;;;;;12.60;3.10;;;9.20;1.00;;;;;;5050905;28;20174;-65
2023/12/21 10:48:01;;;;;;;13.97;3.83;;;9.20;1.00;;;;;;5051701;28;20192;-65
2023/12/21 10:50:30;;;;;;;13.17;2.83;;;9.30;1.00;;;;;;5052639;28;20736;-68
2023/12/21 10:52:59;;;;;;;7.40;2.40;;;9.30;1.00;;;;;;5052993;28;20388;-64
2023/12/21 10:55:25;;;;;;;9.70;2.97;;;9.30;1.00;;;;;;5052229;28;20758;-65
2023/12/21 10:57:53;;;;;;;16.20;4.10;;;9.30;1.00;;;;;;5052623;28;20395;-69
2023/12/21 11:00:21;;;;;;;11.27;3.53;;;9.30;1.00;;;;;;5051059;28;20446;-64
2023/12/21 11:02:48;;;;;;;12.70;4.43;;;9.20;1.00;;;;;;5052652;28;20487;-65
2023/12/21 11:05:22;;;;;;;9.43;3.80;;;9.20;1.00;;;;;;5050447;28;20408;-65
2023/12/21 11:07:53;;;;;;;8.93;2.63;;;9.10;1.00;;;;;;5051123;28;20937;-64
2023/12/21 11:10:21;;;;;;;12.70;2.73;;;8.90;1.00;;;;;;5050932;28;20478;-64
2023/12/21 11:12:48;;;;;;;8.80;2.77;;;8.90;1.00;;;;;;5052401;28;20398;-65
2023/12/21 11:15:18;;;;;;;5.70;2.20;;;8.90;1.00;;;;;;5051722;28;20402;-66
2023/12/21 11:18:09;;;;;;;7.80;2.97;;;8.80;1.00;;;;;;5034784;28;20404;-64
2023/12/21 11:20:50;;;;;;;8.37;3.00;;;8.80;1.00;;;;;;5043325;28;20443;-68
2023/12/21 11:23:16;;;;;;;12.63;3.20;;;8.70;1.00;;;;;;5052466;28;20412;-66
2023/12/21 11:25:43;;;;;;;4.27;2.10;;;8.70;1.00;;;;;;5051497;28;20417;-64
2023/12/21 11:28:09;;;;;;;9.03;2.50;;;8.70;1.00;;;;;;5034605;28;20437;-65
2023/12/21 11:30:35;;;;;;;5.53;2.40;;;8.80;1.00;;;;;;5034763;28;20822;-66
2023/12/21 11:33:09;;;;;;;7.90;4.00;;;8.80;1.00;;;;;;5035092;28;20408;-66
2023/12/21 11:35:36;;;;;;;16.37;3.63;;;8.80;1.00;;;;;;5030291;28;20243;-64
2023/12/21 11:38:06;;;;;;;17.30;6.23;;;8.80;1.00;;;;;;5031913;28;20400;-70
2023/12/21 11:40:35;;;;;;;15.53;3.90;;;8.70;1.00;;;;;;5032315;28;20411;-71
2023/12/21 11:43:02;;;;;;;11.13;3.00;;;8.60;1.00;;;;;;5033400;28;20792;-65
2023/12/21 11:45:30;;;;;;;8.33;2.27;;;8.50;1.00;;;;;;5018004;28;20886;-64
2023/12/21 11:48:04;;;;;;;6.73;2.80;;;8.30;1.00;;;;;;5035802;28;20397;-67
2023/12/21 11:50:35;;;;;;;2.00;1.90;;;8.00;1.00;;;;;;5018272;28;20454;-66
2023/12/21 11:53:09;;;;;;;5.53;2.03;;;7.90;1.00;;;;;;5035638;28;20411;-64
2023/12/21 11:55:41;;;;;;;6.37;2.43;;;7.80;1.00;;;;;;5017195;28;20407;-64
2023/12/21 11:58:24;;;;;;;2.57;1.90;;;7.80;1.00;;;;;;5035301;28;20501;-65
2023/12/21 12:00:51;;;;;;;9.20;2.27;;;7.70;1.00;;;;;;5034721;28;20465;-65
2023/12/21 12:03:17;;;;;;;3.90;2.07;;;7.60;1.00;;;;;;5034377;28;20431;-65
2023/12/21 12:05:44;;;;;;;5.50;1.90;;;7.60;1.00;;;;;;5049453;28;20401;-73
2023/12/21 12:08:10;;;;;;;7.80;1.83;;;7.50;1.00;;;;;;5071135;28;20427;-64
2023/12/21 12:10:36;;;;;;;5.00;2.63;;;7.50;1.00;;;;;;5044204;28;20673;-65
2023/12/21 12:13:23;;;;;;;3.00;1.30;;;7.40;1.00;;;;;;5042649;28;20419;-64
2023/12/21 12:15:52;;;;;;;5.10;2.00;;;7.50;1.00;;;;;;5050148;28;20416;-64
2023/12/21 12:18:37;;;;;;;4.40;1.97;;;7.40;1.00;;;;;;5053093;28;20441;-70
2023/12/21 12:21:03;;;;;;;3.67;1.83;;;7.40;1.00;;;;;;5048974;28;20825;-64
2023/12/21 12:23:29;;;;;;;5.80;2.07;;;7.40;1.00;;;;;;5053891;28;20421;-65
2023/12/21 12:25:56;;;;;;;11.43;3.00;;;7.40;1.00;;;;;;5051868;28;20957;-68
2023/12/21 12:28:24;;;;;;;9.90;2.40;;;7.40;1.00;;;;;;5032469;28;20473;-64
2023/12/21 12:30:50;;;;;;;8.83;2.73;;;7.50;1.00;;;;;;5017881;28;20423;-64
2023/12/21 12:33:16;;;;;;;5.37;2.53;;;7.40;1.00;;;;;;5057020;28;20793;-67
2023/12/21 12:35:49;;;;;;;5.83;2.53;;;7.40;1.00;;;;;;5067939;28;20433;-64
2023/12/21 12:38:16;;;;;;;9.70;2.70;;;7.40;1.00;;;;;;5071144;28;20431;-64
2023/12/21 12:40:45;;;;;;;17.70;3.30;;;7.40;1.00;;;;;;5068286;28;20470;-64
2023/12/21 12:43:14;;;;;;;16.93;3.83;;;7.40;1.00;;;;;;5063825;28;20413;-65
2023/12/21 12:45:41;;;;;;;15.30;3.70;;;7.40;1.00;;;;;;5067198;28;20515;-64
2023/12/21 12:48:10;;;;;;;14.63;3.70;;;7.40;1.00;;;;;;5062011;28;20873;-66
2023/12/21 12:50:36;;;;;;;19.93;3.90;;;7.40;1.00;;;;;;5054375;28;20452;-65
2023/12/21 12:53:02;;;;;;;8.30;3.33;;;7.60;1.00;;;;;;5054113;28;20409;-64
2023/12/21 12:55:28;;;;;;;13.03;3.20;;;7.50;1.00;;;;;;5052472;28;20170;-64
2023/12/21 12:57:55;;;;;;;20.53;4.97;;;7.60;1.00;;;;;;5051904;28;20969;-67
2023/12/21 13:00:21;;;;;;;11.93;3.70;;;7.60;1.00;;;;;;5052914;28;20464;-64
2023/12/21 13:02:47;;;;;;;14.53;4.37;;;7.60;1.00;;;;;;5069149;28;20847;-64